Blue Springs, Alabama
Current Conditions -  °F | °C
As of 10:53 AM on Tuesday 21 Oct 2014 (Local Time) from KHEY Reporting Station
Clear Clear  
Wind Chill: 73°   Ceiling: Unl
Heat Index: 73°   Visibility: 10mi
Dew Point: 51°   Wind: 10mph
Humidity: 46%   Direction: 10°N
Pressure: 30.04"   Gusts: NA
Location:  31.6731°N, 85.5681°W
Report Text: KHEY 211553Z AUTO 01009KT 10SM CLR 23/11 A3004 RMK AO2 SLP059 T02280106
Loading
Personal Weather Stations






























Interactive Weather Map
Tropical Storm Tracking
New forecast layout! Learn more

10-Day Weather Forecast

Advertisements
Track Severe Weather on mobile